Time;durP1;ratioP1;P1;durP2;ratioP2;P2;SDS_P1;SDS_P2;PMS_P1;PMS_P2;Temp;Humidity;BMP_temperature;BMP_pressure;BME280_temperature;BME280_humidity;BME280_pressure;Samples;Min_cycle;Max_cycle;Signal;HPM_P1;HPM_P2
2022/03/28 00:01:52;;;;;;;14.15;8.20;;;6.50;99.90;;;;;;4993340;28;20068;-83
2022/03/28 00:04:18;;;;;;;14.93;8.60;;;6.50;99.90;;;;;;4992526;28;20045;-83
2022/03/28 00:06:44;;;;;;;11.77;8.43;;;6.50;99.90;;;;;;4965898;28;20460;-83
2022/03/28 00:09:09;;;;;;;19.45;8.90;;;6.50;99.90;;;;;;4965940;28;20046;-83
2022/03/28 00:11:35;;;;;;;18.25;8.90;;;6.50;99.90;;;;;;4980609;28;20548;-83
2022/03/28 00:14:01;;;;;;;18.20;8.73;;;6.50;99.90;;;;;;4992497;28;20041;-83
2022/03/28 00:16:27;;;;;;;19.38;8.57;;;6.60;99.90;;;;;;4970468;28;20099;-83
2022/03/28 00:18:53;;;;;;;14.75;8.13;;;6.40;99.90;;;;;;4992141;28;20046;-83
2022/03/28 00:21:19;;;;;;;16.92;8.07;;;6.40;99.90;;;;;;4993056;28;20074;-83
2022/03/28 00:23:45;;;;;;;11.18;8.75;;;6.40;99.90;;;;;;4979722;28;20050;-83
2022/03/28 00:26:11;;;;;;;18.45;8.50;;;6.40;99.90;;;;;;4993278;28;20041;-83
2022/03/28 00:28:37;;;;;;;16.63;9.30;;;6.40;99.90;;;;;;4994002;28;20440;-83
2022/03/28 00:31:03;;;;;;;13.63;8.32;;;6.40;99.90;;;;;;4980810;28;20128;-83
2022/03/28 00:33:29;;;;;;;12.20;8.05;;;6.40;99.90;;;;;;4991789;28;20042;-83
2022/03/28 00:35:54;;;;;;;14.13;8.05;;;6.50;99.90;;;;;;4967748;28;20054;-83
2022/03/28 00:38:20;;;;;;;13.55;8.23;;;6.80;99.90;;;;;;4992500;28;20037;-81
2022/03/28 00:40:46;;;;;;;13.77;8.13;;;7.00;99.90;;;;;;4991346;28;20048;-81
2022/03/28 00:43:12;;;;;;;12.73;7.30;;;6.40;99.90;;;;;;4983567;28;20088;-82
2022/03/28 00:45:39;;;;;;;9.93;6.93;;;6.40;99.90;;;;;;4991547;28;20152;-81
2022/03/28 00:48:06;;;;;;;12.07;7.30;;;6.40;99.90;;;;;;4993287;28;20030;-81
2022/03/28 00:50:32;;;;;;;11.27;7.25;;;6.30;99.90;;;;;;4991068;28;20045;-82
2022/03/28 00:52:59;;;;;;;10.95;7.68;;;6.30;99.90;;;;;;4990345;28;20547;-81
2022/03/28 00:55:25;;;;;;;14.25;8.55;;;6.30;99.90;;;;;;4992308;28;20365;-82
2022/03/28 00:57:51;;;;;;;14.95;8.90;;;6.30;99.90;;;;;;4975896;28;20034;-81
2022/03/28 01:00:17;;;;;;;13.18;8.35;;;6.20;99.90;;;;;;4969536;28;20538;-81
2022/03/28 01:02:43;;;;;;;14.85;8.93;;;6.30;99.90;;;;;;4987911;28;20054;-81
2022/03/28 01:05:10;;;;;;;16.23;9.35;;;6.30;99.90;;;;;;4993151;28;20046;-82
2022/03/28 01:07:38;;;;;;;13.00;8.95;;;7.00;99.90;;;;;;4976112;28;20035;-81
2022/03/28 01:10:05;;;;;;;12.43;8.50;;;6.30;99.90;;;;;;4990380;28;20041;-81
2022/03/28 01:12:32;;;;;;;14.02;9.55;;;6.30;99.90;;;;;;4967302;28;20448;-84
2022/03/28 01:14:58;;;;;;;16.85;10.05;;;6.30;99.90;;;;;;4976573;28;20481;-84
2022/03/28 01:20:09;;;;;;;18.70;11.05;;;6.20;99.90;;;;;;4970268;28;20068;-84
2022/03/28 01:22:36;;;;;;;16.85;10.20;;;6.30;99.90;;;;;;4993975;28;20069;-84
2022/03/28 01:25:04;;;;;;;16.33;10.13;;;6.30;99.90;;;;;;4993715;28;20105;-84
2022/03/28 01:27:31;;;;;;;15.40;9.82;;;6.30;99.90;;;;;;4993815;28;20034;-84
2022/03/28 01:29:56;;;;;;;17.08;10.23;;;6.30;99.90;;;;;;4994015;28;20034;-84
2022/03/28 01:32:22;;;;;;;17.40;10.02;;;6.90;99.90;;;;;;4976943;28;20048;-84
2022/03/28 01:34:48;;;;;;;16.25;9.93;;;6.30;99.90;;;;;;4975330;28;20119;-84
2022/03/28 01:37:14;;;;;;;11.70;9.25;;;6.70;99.90;;;;;;4993148;28;20062;-84
2022/03/28 01:39:40;;;;;;;11.98;8.98;;;6.20;99.90;;;;;;4961585;28;20041;-84
2022/03/28 01:42:05;;;;;;;14.63;9.27;;;6.80;99.90;;;;;;4977418;28;20466;-84
2022/03/28 01:44:31;;;;;;;18.20;10.82;;;6.20;99.90;;;;;;4993015;28;20043;-84
2022/03/28 01:46:57;;;;;;;15.00;9.88;;;6.20;99.90;;;;;;4976118;28;20546;-82
2022/03/28 01:49:23;;;;;;;13.95;9.70;;;6.50;99.90;;;;;;4975539;28;20110;-82
2022/03/28 01:51:50;;;;;;;15.30;10.48;;;6.50;99.90;;;;;;4952206;28;20097;-82
2022/03/28 01:54:17;;;;;;;15.68;11.13;;;6.20;99.90;;;;;;4990207;28;20402;-82
2022/03/28 01:56:43;;;;;;;16.05;10.10;;;6.30;99.90;;;;;;4990602;28;20456;-82
2022/03/28 01:59:10;;;;;;;14.75;10.32;;;6.20;99.90;;;;;;4974925;28;20046;-82
2022/03/28 02:01:37;;;;;;;17.00;10.63;;;6.20;99.90;;;;;;4974339;28;20453;-82
2022/03/28 02:04:03;;;;;;;16.40;10.05;;;6.20;99.90;;;;;;4989641;28;20050;-82
2022/03/28 02:06:29;;;;;;;17.75;11.25;;;6.20;99.90;;;;;;4990889;28;20478;-82
2022/03/28 02:08:55;;;;;;;13.40;10.48;;;6.20;99.90;;;;;;4958466;28;20429;-82
2022/03/28 02:11:21;;;;;;;20.67;11.48;;;6.20;99.90;;;;;;4975109;28;20040;-82
2022/03/28 02:13:47;;;;;;;16.13;10.30;;;6.20;99.90;;;;;;4989602;28;20436;-82
2022/03/28 02:16:13;;;;;;;18.00;10.65;;;6.20;99.90;;;;;;4967965;28;20401;-82
2022/03/28 02:18:39;;;;;;;16.48;10.65;;;6.20;99.90;;;;;;4989488;28;20035;-82
2022/03/28 02:21:05;;;;;;;15.52;9.68;;;6.20;99.90;;;;;;4975484;28;20074;-82
2022/03/28 02:23:31;;;;;;;16.67;10.38;;;6.10;99.90;;;;;;4992435;28;20057;-82
2022/03/28 02:25:57;;;;;;;20.98;10.45;;;6.20;99.90;;;;;;4991253;28;20042;-82
2022/03/28 02:28:23;;;;;;;15.00;10.18;;;6.10;99.90;;;;;;4991005;28;20065;-81
2022/03/28 02:30:49;;;;;;;16.38;10.10;;;6.10;99.90;;;;;;4989257;28;20066;-82
2022/03/28 02:33:15;;;;;;;17.65;10.35;;;6.20;99.90;;;;;;4972681;28;20034;-82
2022/03/28 02:35:41;;;;;;;16.30;10.77;;;6.10;99.90;;;;;;4990443;28;20042;-83
2022/03/28 02:38:08;;;;;;;14.60;9.45;;;6.10;99.90;;;;;;4990528;28;20042;-83
2022/03/28 02:40:35;;;;;;;15.95;10.18;;;6.80;99.90;;;;;;4987438;28;20042;-83
2022/03/28 02:43:02;;;;;;;16.15;10.98;;;6.10;99.90;;;;;;4970014;28;20042;-83
2022/03/28 02:45:31;;;;;;;14.20;10.18;;;6.10;99.90;;;;;;4988224;28;20046;-83
2022/03/28 02:47:59;;;;;;;14.93;10.57;;;6.20;99.90;;;;;;4990224;28;20165;-83
2022/03/28 02:50:25;;;;;;;14.90;10.40;;;6.10;99.90;;;;;;4974285;28;20096;-83
2022/03/28 02:52:51;;;;;;;15.00;10.07;;;6.10;99.90;;;;;;4958700;28;20042;-82
2022/03/28 02:55:17;;;;;;;13.93;10.32;;;6.30;99.90;;;;;;4988918;28;20563;-82
2022/03/28 02:57:43;;;;;;;16.65;10.65;;;6.00;99.90;;;;;;5005280;28;20046;-82
2022/03/28 03:00:10;;;;;;;14.55;10.10;;;6.00;99.90;;;;;;4990136;28;20038;-82
2022/03/28 03:02:39;;;;;;;16.45;10.48;;;6.00;99.90;;;;;;4991602;28;20060;-82
2022/03/28 03:05:06;;;;;;;14.15;9.43;;;6.00;99.90;;;;;;4989608;28;20076;-82
2022/03/28 03:07:33;;;;;;;17.02;10.77;;;5.90;99.90;;;;;;4975643;28;20049;-83
2022/03/28 03:09:59;;;;;;;14.88;9.85;;;5.90;99.90;;;;;;4975355;28;20034;-82
2022/03/28 03:12:25;;;;;;;15.68;10.73;;;5.90;99.90;;;;;;4991439;28;20488;-82
2022/03/28 03:14:52;;;;;;;12.23;9.73;;;5.90;99.90;;;;;;4991153;28;20060;-83
2022/03/28 03:17:18;;;;;;;14.55;10.23;;;6.20;99.90;;;;;;4976759;28;20081;-82
2022/03/28 03:19:44;;;;;;;14.95;10.30;;;6.60;99.90;;;;;;4987142;28;20046;-82
2022/03/28 03:22:11;;;;;;;15.98;10.90;;;6.10;99.90;;;;;;4961328;28;20034;-82
2022/03/28 03:24:37;;;;;;;18.02;10.40;;;6.00;99.90;;;;;;4993777;28;20038;-82
2022/03/28 03:27:03;;;;;;;17.50;11.05;;;5.90;99.90;;;;;;4978959;28;20117;-82
2022/03/28 03:29:29;;;;;;;17.48;10.90;;;6.00;99.90;;;;;;4994236;28;20096;-82
2022/03/28 03:31:54;;;;;;;17.15;10.55;;;6.00;99.90;;;;;;4994883;28;20456;-82
2022/03/28 03:34:20;;;;;;;16.42;10.40;;;5.20;99.90;;;;;;4990729;28;20423;-82
2022/03/28 03:36:46;;;;;;;14.38;10.45;;;6.00;99.90;;;;;;4977650;28;20480;-82
2022/03/28 03:39:12;;;;;;;20.58;11.60;;;6.00;99.90;;;;;;4992639;28;20038;-82
2022/03/28 03:41:38;;;;;;;14.18;10.82;;;6.00;99.90;;;;;;4994812;28;20048;-82
2022/03/28 03:44:06;;;;;;;15.25;10.65;;;6.00;99.90;;;;;;4963561;28;20159;-82
2022/03/28 03:46:32;;;;;;;17.17;11.40;;;6.00;99.90;;;;;;4994653;28;20088;-82
2022/03/28 03:48:58;;;;;;;16.38;11.48;;;6.00;99.90;;;;;;5010536;28;20081;-82
2022/03/28 03:51:25;;;;;;;18.58;11.77;;;6.00;99.90;;;;;;4994199;28;21453;-82
2022/03/28 03:53:50;;;;;;;18.85;10.80;;;6.00;99.90;;;;;;4994063;28;20461;-82
2022/03/28 03:56:17;;;;;;;15.02;9.82;;;6.00;99.90;;;;;;4993310;28;20034;-83
2022/03/28 03:58:42;;;;;;;13.63;9.98;;;5.90;99.90;;;;;;5009894;28;20038;-82
2022/03/28 04:01:08;;;;;;;11.70;9.43;;;6.00;99.90;;;;;;4976874;28;20045;-82
2022/03/28 04:03:35;;;;;;;14.07;9.75;;;6.00;99.90;;;;;;4977503;28;20401;-81
2022/03/28 04:06:01;;;;;;;15.90;10.75;;;5.90;99.90;;;;;;4962484;28;20039;-82
2022/03/28 04:08:27;;;;;;;15.73;10.25;;;5.90;99.90;;;;;;4977246;28;20035;-82
2022/03/28 04:10:54;;;;;;;15.48;10.68;;;5.90;99.90;;;;;;4993590;28;20045;-82
2022/03/28 04:13:20;;;;;;;14.95;10.52;;;6.00;99.90;;;;;;4993819;28;20046;-82
2022/03/28 04:15:46;;;;;;;17.85;11.02;;;6.00;99.90;;;;;;4978155;28;20077;-82
2022/03/28 04:18:11;;;;;;;19.52;10.98;;;6.70;99.90;;;;;;4994508;28;20045;-82
2022/03/28 04:20:37;;;;;;;13.88;10.95;;;6.00;99.90;;;;;;4993351;28;20053;-83
2022/03/28 04:23:04;;;;;;;14.52;10.32;;;6.00;99.90;;;;;;4992695;28;20042;-83
2022/03/28 04:25:29;;;;;;;13.15;9.88;;;5.90;99.90;;;;;;4994075;28;20092;-83
2022/03/28 04:27:55;;;;;;;13.27;10.10;;;5.90;99.90;;;;;;4978502;28;20038;-83
2022/03/28 04:30:22;;;;;;;14.18;10.05;;;5.90;99.90;;;;;;4978216;28;20116;-83
2022/03/28 04:32:48;;;;;;;13.43;10.32;;;6.30;99.90;;;;;;4990481;28;20046;-84
2022/03/28 04:35:14;;;;;;;13.98;9.88;;;5.90;99.90;;;;;;4992540;28;20438;-84
2022/03/28 04:37:42;;;;;;;13.50;9.98;;;6.00;99.90;;;;;;4994815;28;20032;-84
2022/03/28 04:40:11;;;;;;;14.15;9.40;;;5.80;99.90;;;;;;4997875;28;20044;-84
2022/03/28 04:42:36;;;;;;;15.65;10.50;;;5.80;99.90;;;;;;4987651;28;20117;-84
2022/03/28 04:45:04;;;;;;;13.70;10.00;;;5.80;99.90;;;;;;4998430;28;20124;-84
2022/03/28 04:47:30;;;;;;;16.25;10.70;;;5.80;99.90;;;;;;4991845;28;20555;-84
2022/03/28 04:49:56;;;;;;;13.77;10.10;;;5.80;99.90;;;;;;4982184;28;20124;-84
2022/03/28 04:52:22;;;;;;;14.98;9.90;;;5.80;99.90;;;;;;4970549;28;20038;-84
2022/03/28 04:54:48;;;;;;;14.35;9.82;;;5.80;99.90;;;;;;4980145;28;20037;-84
2022/03/28 04:57:13;;;;;;;16.67;9.77;;;5.70;99.90;;;;;;4980944;28;20428;-84
2022/03/28 04:59:39;;;;;;;13.20;9.35;;;6.20;99.90;;;;;;4971596;28;20389;-84
2022/03/28 05:02:06;;;;;;;16.42;9.32;;;5.80;99.90;;;;;;4993999;28;20637;-84
2022/03/28 05:04:32;;;;;;;13.90;8.93;;;5.70;99.90;;;;;;4969046;28;20566;-84
2022/03/28 05:06:58;;;;;;;13.07;8.52;;;5.70;99.90;;;;;;4997092;28;20046;-82
2022/03/28 05:09:24;;;;;;;12.35;8.32;;;5.70;99.90;;;;;;4979320;28;20041;-82
2022/03/28 05:11:50;;;;;;;14.90;9.15;;;5.70;99.90;;;;;;4993286;28;20583;-82
2022/03/28 05:14:18;;;;;;;14.25;9.02;;;5.70;99.90;;;;;;4996709;28;20041;-82
2022/03/28 05:16:44;;;;;;;16.85;9.27;;;5.70;99.90;;;;;;4993126;28;20069;-82
2022/03/28 05:19:09;;;;;;;15.43;9.25;;;5.70;99.90;;;;;;4978459;28;20042;-82
2022/03/28 05:21:35;;;;;;;14.93;9.93;;;5.70;99.90;;;;;;4995938;28;20464;-82
2022/03/28 05:24:01;;;;;;;14.13;9.02;;;5.70;99.90;;;;;;4983499;28;20038;-82
2022/03/28 05:26:27;;;;;;;15.48;9.73;;;5.70;99.90;;;;;;4987057;28;20104;-82
2022/03/28 05:28:53;;;;;;;14.65;10.18;;;6.40;99.90;;;;;;4988439;28;20046;-82
2022/03/28 05:31:19;;;;;;;15.02;10.77;;;5.70;99.90;;;;;;4994398;28;20099;-82
2022/03/28 05:33:44;;;;;;;15.23;10.02;;;5.70;99.90;;;;;;4995566;28;20037;-82
2022/03/28 05:36:10;;;;;;;14.63;10.02;;;5.70;99.90;;;;;;4956400;28;20088;-83
2022/03/28 05:38:36;;;;;;;18.13;10.27;;;5.70;99.90;;;;;;5000724;28;20093;-83
2022/03/28 05:41:05;;;;;;;16.77;10.57;;;6.30;99.90;;;;;;4997258;28;20124;-84
2022/03/28 05:43:32;;;;;;;16.48;10.52;;;5.70;99.90;;;;;;4989482;28;20030;-84
2022/03/28 05:45:58;;;;;;;17.60;10.65;;;5.70;99.90;;;;;;4985868;28;20041;-84
2022/03/28 05:48:23;;;;;;;15.80;11.00;;;5.70;99.90;;;;;;4993471;28;20034;-84
2022/03/28 05:50:49;;;;;;;17.73;9.55;;;5.70;99.90;;;;;;4995472;28;20045;-84
2022/03/28 05:53:15;;;;;;;16.73;9.73;;;5.60;99.90;;;;;;4978105;28;20073;-84
2022/03/28 05:55:43;;;;;;;13.40;9.20;;;5.60;99.90;;;;;;4987774;28;20054;-85
2022/03/28 05:58:09;;;;;;;16.40;9.20;;;5.60;99.90;;;;;;4979593;28;20120;-85
2022/03/28 06:00:36;;;;;;;15.68;9.73;;;5.60;99.90;;;;;;4996028;28;20124;-85
2022/03/28 06:03:04;;;;;;;14.20;8.13;;;5.60;99.90;;;;;;4979415;28;20037;-85
2022/03/28 06:05:31;;;;;;;13.20;8.02;;;5.70;99.90;;;;;;4989354;28;20489;-85
2022/03/28 06:07:58;;;;;;;13.90;8.43;;;5.70;99.90;;;;;;4996138;28;20046;-85
2022/03/28 06:10:24;;;;;;;13.32;8.48;;;5.60;99.90;;;;;;4995358;28;20042;-85
2022/03/28 06:12:50;;;;;;;12.77;8.30;;;5.60;99.90;;;;;;4983825;28;20354;-84
2022/03/28 06:15:15;;;;;;;13.85;7.53;;;5.60;99.90;;;;;;4977651;28;20030;-84
2022/03/28 06:17:43;;;;;;;12.93;7.85;;;5.60;99.90;;;;;;4994739;28;20030;-86
2022/03/28 06:20:13;;;;;;;11.25;7.30;;;6.60;99.90;;;;;;4987672;28;20085;-84
2022/03/28 06:22:40;;;;;;;12.68;7.40;;;5.60;99.90;;;;;;4997562;28;20073;-84
2022/03/28 06:25:07;;;;;;;12.00;7.20;;;5.60;99.90;;;;;;4977690;28;20129;-84
2022/03/28 06:27:38;;;;;;;12.00;6.95;;;5.60;99.90;;;;;;4997195;28;20042;-84
2022/03/28 06:30:04;;;;;;;10.13;6.63;;;5.70;99.90;;;;;;4996611;28;20038;-84
2022/03/28 06:32:29;;;;;;;11.10;6.13;;;5.70;99.90;;;;;;4993982;28;20034;-84
2022/03/28 06:34:55;;;;;;;9.43;5.38;;;5.80;99.90;;;;;;4986908;28;20370;-85
2022/03/28 06:37:24;;;;;;;10.82;5.68;;;5.70;99.90;;;;;;4964236;28;20068;-84
2022/03/28 06:39:50;;;;;;;7.88;4.95;;;5.70;99.90;;;;;;4996508;28;20038;-84
2022/03/28 06:42:16;;;;;;;9.90;5.10;;;5.80;99.90;;;;;;4997418;28;20068;-84
2022/03/28 06:44:41;;;;;;;8.40;4.72;;;5.80;99.90;;;;;;4978165;28;20031;-84
2022/03/28 06:47:07;;;;;;;8.48;5.00;;;6.70;99.90;;;;;;4993686;23;20050;-84
2022/03/28 06:49:34;;;;;;;9.38;4.70;;;6.90;99.90;;;;;;4988310;28;20057;-85
2022/03/28 06:51:59;;;;;;;7.90;4.80;;;5.80;99.90;;;;;;4988892;28;20043;-85
2022/03/28 06:54:26;;;;;;;7.97;4.78;;;5.90;99.90;;;;;;5003958;28;20034;-85
2022/03/28 06:56:51;;;;;;;7.15;3.83;;;6.50;99.90;;;;;;5004195;28;20108;-86
2022/03/28 06:59:19;;;;;;;6.57;3.90;;;5.90;99.90;;;;;;4971909;28;20042;-83
2022/03/28 07:01:45;;;;;;;5.20;3.20;;;6.90;99.90;;;;;;5002338;28;20042;-82
2022/03/28 07:04:11;;;;;;;5.15;3.28;;;6.60;99.90;;;;;;4957696;28;20116;-84
2022/03/28 07:06:40;;;;;;;6.45;3.42;;;6.00;99.90;;;;;;4991718;28;20034;-83
2022/03/28 07:09:05;;;;;;;5.85;3.25;;;6.00;99.90;;;;;;4953695;28;20070;-83
2022/03/28 07:11:32;;;;;;;5.22;3.20;;;6.00;99.90;;;;;;5003904;28;20074;-83
2022/03/28 07:13:58;;;;;;;5.93;3.72;;;6.00;99.90;;;;;;5002641;28;20408;-83
2022/03/28 07:16:24;;;;;;;6.13;3.70;;;6.70;99.90;;;;;;4942797;28;20046;-83
2022/03/28 07:18:50;;;;;;;5.80;3.50;;;6.10;99.90;;;;;;4973025;28;20089;-81
2022/03/28 07:21:16;;;;;;;5.53;3.38;;;6.00;99.90;;;;;;4986452;28;20377;-81
2022/03/28 07:23:43;;;;;;;6.03;3.78;;;6.10;99.90;;;;;;4998780;28;20081;-81
2022/03/28 07:26:10;;;;;;;8.20;4.75;;;6.10;99.90;;;;;;5006039;28;20039;-81
2022/03/28 07:28:39;;;;;;;9.10;4.88;;;6.20;99.90;;;;;;5005133;28;20473;-81
2022/03/28 07:31:08;;;;;;;8.10;4.28;;;6.20;99.90;;;;;;4991788;28;20045;-81
2022/03/28 07:33:41;;;;;;;6.40;4.07;;;6.30;99.90;;;;;;4973671;28;20042;-81
2022/03/28 07:36:08;;;;;;;6.95;4.22;;;6.30;99.90;;;;;;5000383;28;20046;-83
2022/03/28 07:38:35;;;;;;;6.88;4.22;;;6.40;99.90;;;;;;5007201;28;20042;-83
2022/03/28 07:41:02;;;;;;;6.88;4.45;;;6.40;99.90;;;;;;4981185;28;20388;-82
2022/03/28 07:43:28;;;;;;;7.53;4.18;;;6.40;99.90;;;;;;4984505;28;20053;-83
2022/03/28 07:45:54;;;;;;;7.07;4.45;;;6.40;99.90;;;;;;4957990;28;20042;-83
2022/03/28 07:48:24;;;;;;;7.55;4.57;;;6.50;99.90;;;;;;4993452;28;20130;-83
2022/03/28 07:50:50;;;;;;;7.22;4.68;;;6.50;99.90;;;;;;4985928;28;20038;-83
2022/03/28 07:53:16;;;;;;;9.65;5.10;;;6.50;99.90;;;;;;4972779;28;20516;-81
2022/03/28 07:55:43;;;;;;;8.50;4.78;;;6.60;99.90;;;;;;4959885;28;20047;-81
2022/03/28 07:58:10;;;;;;;9.48;5.72;;;7.20;99.90;;;;;;4969457;28;20496;-81
2022/03/28 08:00:37;;;;;;;7.80;5.35;;;6.40;99.90;;;;;;4990177;28;20061;-81
2022/03/28 08:03:04;;;;;;;9.85;6.18;;;6.40;99.90;;;;;;4970110;28;20042;-81
2022/03/28 08:05:30;;;;;;;9.85;6.03;;;6.40;99.90;;;;;;4943584;28;20105;-81
2022/03/28 08:07:56;;;;;;;11.02;6.30;;;6.40;99.90;;;;;;4978925;28;20078;-86
2022/03/28 08:10:23;;;;;;;8.85;6.00;;;6.40;99.90;;;;;;4953859;28;20054;-86
2022/03/28 08:12:49;;;;;;;9.40;6.82;;;7.20;99.90;;;;;;4978007;28;20043;-86
2022/03/28 08:15:16;;;;;;;10.10;6.80;;;6.50;99.90;;;;;;4996486;28;20508;-86
2022/03/28 08:17:42;;;;;;;10.13;7.15;;;6.60;99.90;;;;;;4954596;28;20042;-86
2022/03/28 08:20:09;;;;;;;12.55;7.70;;;6.60;99.90;;;;;;4988506;28;20060;-86
2022/03/28 08:22:46;;;;;;;10.50;7.93;;;6.60;99.90;;;;;;4996066;28;20088;-86
2022/03/28 08:25:13;;;;;;;11.23;8.18;;;7.50;99.90;;;;;;4963907;28;20125;-86
2022/03/28 08:27:39;;;;;;;9.95;7.40;;;7.30;99.90;;;;;;4987830;28;20086;-86
2022/03/28 08:30:05;;;;;;;11.25;7.35;;;7.30;99.90;;;;;;4958646;28;20074;-86
2022/03/28 08:32:31;;;;;;;10.82;7.40;;;6.80;99.90;;;;;;4981517;28;20042;-86
2022/03/28 08:34:57;;;;;;;10.32;6.60;;;6.80;99.90;;;;;;4954424;28;20449;-86
2022/03/28 08:37:24;;;;;;;9.48;7.10;;;7.60;99.90;;;;;;4990668;28;20046;-86
2022/03/28 08:39:54;;;;;;;10.93;7.63;;;6.70;99.90;;;;;;4989281;28;20049;-86
2022/03/28 08:42:24;;;;;;;11.05;7.43;;;6.80;99.90;;;;;;4972323;28;20101;-83
2022/03/28 08:44:50;;;;;;;11.85;7.88;;;6.80;99.90;;;;;;4984688;28;20046;-83
2022/03/28 08:47:22;;;;;;;12.30;8.73;;;6.90;99.90;;;;;;4972699;28;20129;-83
2022/03/28 08:49:52;;;;;;;11.88;8.57;;;7.00;99.90;;;;;;4994717;28;20469;-83
2022/03/28 08:52:20;;;;;;;10.75;8.00;;;6.70;99.90;;;;;;4945708;28;20034;-83
2022/03/28 08:54:46;;;;;;;9.77;7.72;;;7.10;99.90;;;;;;4974184;28;20046;-83
2022/03/28 08:57:13;;;;;;;13.27;8.30;;;7.50;99.90;;;;;;4976369;28;20042;-83
2022/03/28 08:59:39;;;;;;;10.25;7.63;;;7.20;99.90;;;;;;4963983;28;20046;-83
2022/03/28 09:02:05;;;;;;;9.98;7.43;;;7.20;99.90;;;;;;4959239;28;20092;-83
2022/03/28 09:04:35;;;;;;;9.82;7.65;;;7.30;99.90;;;;;;4959901;28;20042;-83
2022/03/28 09:07:01;;;;;;;10.80;8.05;;;7.50;99.90;;;;;;4992699;28;20049;-83
2022/03/28 09:09:29;;;;;;;12.23;7.35;;;7.50;99.90;;;;;;4960268;28;20042;-83
2022/03/28 09:12:09;;;;;;;9.77;7.45;;;7.70;99.90;;;;;;4976287;28;20081;-82
2022/03/28 09:14:37;;;;;;;11.55;7.38;;;7.70;99.90;;;;;;4959277;28;20081;-83
2022/03/28 09:17:03;;;;;;;11.25;7.25;;;7.80;99.90;;;;;;4942243;28;20042;-81
2022/03/28 09:19:48;;;;;;;9.70;7.65;;;7.80;99.90;;;;;;4961492;28;20137;-81
2022/03/28 09:22:29;;;;;;;10.43;7.95;;;7.80;99.90;;;;;;4941907;28;20050;-81
2022/03/28 09:25:18;;;;;;;11.90;8.05;;;7.90;99.90;;;;;;4961931;28;20038;-81
2022/03/28 09:27:44;;;;;;;10.35;8.30;;;7.80;99.90;;;;;;4960694;28;20039;-82
2022/03/28 09:30:20;;;;;;;10.70;8.05;;;7.90;99.90;;;;;;4974083;28;20062;-82
2022/03/28 09:32:52;;;;;;;11.77;8.57;;;7.90;99.90;;;;;;4971814;28;20042;-82
2022/03/28 09:35:21;;;;;;;10.73;7.95;;;8.00;99.90;;;;;;4974982;28;20046;-82
2022/03/28 09:38:04;;;;;;;9.85;8.82;;;8.10;99.90;;;;;;4953702;28;20588;-82
2022/03/28 09:40:35;;;;;;;10.45;8.27;;;8.10;99.90;;;;;;4987442;28;20053;-83
2022/03/28 09:43:22;;;;;;;11.05;8.60;;;8.20;99.90;;;;;;4984772;28;20068;-83
2022/03/28 09:45:50;;;;;;;10.90;8.38;;;8.20;99.90;;;;;;4970712;28;20045;-83
2022/03/28 09:48:19;;;;;;;12.50;8.60;;;8.30;99.90;;;;;;4972636;28;20141;-86
2022/03/28 09:51:05;;;;;;;11.50;8.32;;;8.40;99.90;;;;;;4971870;28;20038;-86
2022/03/28 09:53:37;;;;;;;11.00;9.15;;;8.40;99.90;;;;;;5005036;28;20035;-86
2022/03/28 09:56:07;;;;;;;10.50;8.80;;;8.60;99.90;;;;;;4975757;28;20046;-86
2022/03/28 09:58:46;;;;;;;10.48;7.95;;;8.70;99.90;;;;;;5001084;28;20042;-86
2022/03/28 10:01:21;;;;;;;10.73;8.82;;;8.80;99.90;;;;;;4991156;28;20045;-86
2022/03/28 10:03:49;;;;;;;10.13;8.38;;;8.90;99.90;;;;;;4973373;28;20067;-86
2022/03/28 10:06:15;;;;;;;12.13;9.02;;;9.00;99.90;;;;;;4988198;28;20076;-82
2022/03/28 10:08:42;;;;;;;11.98;8.82;;;9.20;99.90;;;;;;4971966;28;20031;-82
2022/03/28 10:11:08;;;;;;;13.40;8.95;;;9.30;99.90;;;;;;4964831;28;20066;-82
2022/03/28 10:13:34;;;;;;;11.38;8.77;;;9.50;99.90;;;;;;5002575;28;20495;-82
2022/03/28 10:16:02;;;;;;;11.38;9.13;;;9.50;99.90;;;;;;4991131;28;20067;-82
2022/03/28 10:18:39;;;;;;;11.85;8.68;;;9.30;99.90;;;;;;5004694;28;20046;-82
2022/03/28 10:21:35;;;;;;;11.18;8.80;;;9.60;99.90;;;;;;4983709;28;20096;-82
2022/03/28 10:24:13;;;;;;;14.38;9.05;;;9.60;99.90;;;;;;4985134;28;20054;-83
2022/03/28 10:26:44;;;;;;;10.65;8.63;;;9.70;99.90;;;;;;5008039;28;20108;-84
2022/03/28 10:29:21;;;;;;;11.98;9.02;;;10.00;99.90;;;;;;4992130;28;20034;-84
2022/03/28 10:31:57;;;;;;;12.55;9.23;;;10.00;99.90;;;;;;4990421;28;20050;-84
2022/03/28 10:34:53;;;;;;;11.73;9.18;;;10.10;99.90;;;;;;4986644;28;20077;-84
2022/03/28 10:37:33;;;;;;;10.83;9.07;;;10.10;99.90;;;;;;4976025;28;20457;-84
2022/03/28 10:40:19;;;;;;;13.20;9.38;;;10.20;99.90;;;;;;5002979;28;20073;-82
2022/03/28 10:42:52;;;;;;;11.23;8.20;;;10.10;99.90;;;;;;4984828;28;20428;-82
2022/03/28 10:45:19;;;;;;;9.50;7.78;;;10.30;99.90;;;;;;4979957;28;20361;-82
2022/03/28 10:47:49;;;;;;;11.27;8.45;;;10.40;99.90;;;;;;4988933;28;20501;-82
2022/03/28 10:50:26;;;;;;;11.63;9.10;;;10.50;99.90;;;;;;4973391;28;20042;-82
2022/03/28 10:53:16;;;;;;;13.00;9.15;;;10.80;99.90;;;;;;4951754;28;20080;-83
2022/03/28 10:55:44;;;;;;;12.98;8.40;;;11.10;99.90;;;;;;4979227;28;20451;-85
2022/03/28 10:58:24;;;;;;;11.13;7.63;;;11.50;99.90;;;;;;4959206;28;20049;-86
2022/03/28 11:01:08;;;;;;;12.07;7.43;;;12.30;99.90;;;;;;4974371;28;20096;-86
2022/03/28 11:03:44;;;;;;;10.02;7.63;;;12.60;99.90;;;;;;4972876;28;20069;-86
2022/03/28 11:06:11;;;;;;;9.07;7.43;;;12.90;99.90;;;;;;4991357;28;20050;-86
2022/03/28 11:08:46;;;;;;;12.93;7.93;;;12.90;99.90;;;;;;4972510;28;20072;-85
2022/03/28 11:11:24;;;;;;;11.02;7.50;;;12.70;99.90;;;;;;4974729;28;20034;-86
2022/03/28 11:13:59;;;;;;;11.40;7.70;;;12.80;99.90;;;;;;4973706;28;20042;-85
2022/03/28 11:16:49;;;;;;;11.63;7.72;;;13.10;99.90;;;;;;4986600;28;20561;-86
2022/03/28 11:19:35;;;;;;;9.85;8.18;;;13.30;99.90;;;;;;4971909;28;20042;-86
2022/03/28 11:22:04;;;;;;;10.70;8.50;;;13.10;99.90;;;;;;4954839;28;20719;-86
2022/03/28 11:24:54;;;;;;;11.65;8.50;;;12.60;99.90;;;;;;4983602;28;20045;-86
2022/03/28 11:27:21;;;;;;;10.57;8.40;;;12.60;99.90;;;;;;4957261;28;20034;-86
2022/03/28 11:29:48;;;;;;;10.65;8.27;;;12.70;99.90;;;;;;4976577;28;20458;-86
2022/03/28 11:32:20;;;;;;;11.60;8.48;;;12.50;99.90;;;;;;4976721;28;20092;-86
2022/03/28 11:34:54;;;;;;;12.10;8.38;;;12.50;99.90;;;;;;4960134;28;20121;-86
2022/03/28 11:37:23;;;;;;;10.45;7.63;;;12.70;99.90;;;;;;4992226;28;20085;-86
2022/03/28 11:39:52;;;;;;;12.10;7.93;;;13.20;99.90;;;;;;4959118;28;20042;-86
2022/03/28 11:42:26;;;;;;;10.05;7.28;;;13.70;99.90;;;;;;4991923;28;20042;-86
2022/03/28 11:44:52;;;;;;;8.88;7.97;;;14.20;99.90;;;;;;4991575;28;20034;-82
2022/03/28 11:47:19;;;;;;;10.00;7.82;;;14.30;99.90;;;;;;4986924;28;20066;-83
2022/03/28 11:49:56;;;;;;;9.60;7.22;;;14.60;99.90;;;;;;5005325;28;20089;-82
2022/03/28 11:52:23;;;;;;;11.10;7.57;;;15.00;99.90;;;;;;5005986;28;20065;-82
2022/03/28 11:54:50;;;;;;;10.52;6.90;;;15.40;99.90;;;;;;5006028;28;20129;-82
2022/03/28 12:00:18;;;;;;;10.85;7.63;;;15.90;99.90;;;;;;4985602;28;20057;-83
2022/03/28 12:02:57;;;;;;;11.05;7.45;;;16.10;99.90;;;;;;4988519;28;20063;-82
2022/03/28 12:05:34;;;;;;;11.90;7.28;;;16.70;99.90;;;;;;4993529;28;20043;-84
2022/03/28 12:08:06;;;;;;;9.57;7.47;;;17.90;99.90;;;;;;4972145;28;20121;-84
2022/03/28 12:10:34;;;;;;;8.32;7.45;;;18.70;99.50;;;;;;5000220;28;20071;-84
2022/03/28 12:13:02;;;;;;;9.40;6.88;;;19.30;99.30;;;;;;4984545;28;20476;-84
2022/03/28 12:15:30;;;;;;;13.18;7.60;;;20.10;97.90;;;;;;4987003;28;20489;-85
2022/03/28 12:18:01;;;;;;;8.88;7.50;;;20.20;96.30;;;;;;5002172;28;20041;-84
2022/03/28 12:20:29;;;;;;;10.52;7.63;;;19.70;92.30;;;;;;5003782;28;20073;-84
2022/03/28 12:22:56;;;;;;;9.73;7.63;;;20.30;94.30;;;;;;4985369;28;20069;-84
2022/03/28 12:25:37;;;;;;;8.88;6.85;;;21.00;91.60;;;;;;5005295;28;20045;-84
2022/03/28 12:28:10;;;;;;;8.63;7.32;;;22.00;90.30;;;;;;4981990;28;20441;-85
2022/03/28 12:30:47;;;;;;;8.70;7.32;;;21.70;76.90;;;;;;4966130;28;20125;-85
2022/03/28 12:33:14;;;;;;;8.10;6.88;;;22.30;81.90;;;;;;4984159;28;20042;-84
2022/03/28 12:35:43;;;;;;;8.10;7.00;;;23.10;78.40;;;;;;4986542;28;20500;-83
2022/03/28 12:38:15;;;;;;;8.20;6.90;;;23.40;77.00;;;;;;5002836;28;20046;-83
2022/03/28 12:40:44;;;;;;;8.68;6.90;;;24.00;74.00;;;;;;4999557;28;20064;-83
2022/03/28 12:43:11;;;;;;;7.80;6.72;;;24.10;71.30;;;;;;4999642;28;20039;-83
2022/03/28 12:45:39;;;;;;;10.10;7.20;;;24.60;70.70;;;;;;4999885;28;20122;-83
2022/03/28 12:48:07;;;;;;;9.50;6.85;;;24.40;68.20;;;;;;4996511;23;20116;-84
2022/03/28 12:50:34;;;;;;;10.32;7.85;;;24.40;69.20;;;;;;5006575;28;20034;-85
2022/03/28 12:53:12;;;;;;;10.95;7.57;;;23.10;69.00;;;;;;5006438;28;20488;-83
2022/03/28 12:55:39;;;;;;;9.63;7.70;;;22.60;69.70;;;;;;5006519;28;20042;-83
2022/03/28 12:58:05;;;;;;;8.98;7.82;;;22.40;72.00;;;;;;5008238;28;20491;-84